createdAt,value
2018-05-01T00:00:43.176Z,18.53
2018-05-01T00:01:43.254Z,18.52
2018-05-01T00:02:43.175Z,18.55
2018-05-01T00:03:43.218Z,18.55
2018-05-01T00:04:43.241Z,18.53
2018-05-01T00:05:43.309Z,18.53
2018-05-01T00:06:43.234Z,18.53
2018-05-01T00:07:43.148Z,18.53
2018-05-01T00:08:43.224Z,18.51
2018-05-01T00:09:43.380Z,18.53
2018-05-01T00:10:43.311Z,18.52
2018-05-01T00:11:43.329Z,18.52
2018-05-01T00:12:43.251Z,18.53
2018-05-01T00:13:43.360Z,18.5
2018-05-01T00:14:43.289Z,18.51
2018-05-01T00:15:43.319Z,18.49
2018-05-01T00:16:43.301Z,18.53
2018-05-01T00:17:43.252Z,18.49
2018-05-01T00:18:43.163Z,18.51
2018-05-01T00:19:43.236Z,18.5
2018-05-01T00:20:43.294Z,18.52
2018-05-01T00:21:43.134Z,18.51
2018-05-01T00:22:43.360Z,18.49
2018-05-01T00:23:43.331Z,18.51
2018-05-01T00:24:43.246Z,18.51
2018-05-01T00:25:43.183Z,18.5
2018-05-01T00:26:43.137Z,18.5
2018-05-01T00:27:43.242Z,18.49
2018-05-01T00:28:43.239Z,18.51
2018-05-01T00:29:43.346Z,18.51
2018-05-01T00:30:43.319Z,18.49
2018-05-01T00:31:43.161Z,18.5
2018-05-01T00:32:43.285Z,18.49
2018-05-01T00:33:43.111Z,18.48
2018-05-01T00:34:43.120Z,18.49
2018-05-01T00:35:43.354Z,18.48
2018-05-01T00:36:43.242Z,18.49
2018-05-01T00:37:43.087Z,18.48
2018-05-01T00:38:43.312Z,18.5
2018-05-01T00:39:43.240Z,18.44
2018-05-01T00:40:43.113Z,18.48
2018-05-01T00:41:43.268Z,18.46
2018-05-01T00:42:43.216Z,18.44
2018-05-01T00:43:43.243Z,18.49
2018-05-01T00:44:43.243Z,18.47
2018-05-01T00:45:43.210Z,18.47
2018-05-01T00:46:43.282Z,18.48
2018-05-01T00:47:43.406Z,18.48
2018-05-01T00:48:43.270Z,18.44
2018-05-01T00:49:43.200Z,18.49
2018-05-01T00:50:43.224Z,18.48
2018-05-01T00:51:43.621Z,18.47
2018-05-01T00:52:43.445Z,18.46
2018-05-01T00:53:43.395Z,18.46
2018-05-01T00:54:43.278Z,18.46
2018-05-01T00:55:43.203Z,18.46
2018-05-01T00:56:43.156Z,18.47
2018-05-01T00:57:43.324Z,18.48
2018-05-01T00:58:43.380Z,18.46
2018-05-01T00:59:43.118Z,18.47
2018-05-01T01:00:43.274Z,18.44
2018-05-01T01:01:43.333Z,18.46
2018-05-01T01:02:43.205Z,18.47
2018-05-01T01:03:43.853Z,18.47
2018-05-01T01:04:43.234Z,18.44
2018-05-01T01:05:43.413Z,18.47
2018-05-01T01:06:43.314Z,18.46
2018-05-01T01:07:43.316Z,18.44
2018-05-01T01:08:43.339Z,18.44
2018-05-01T01:09:43.069Z,18.47
2018-05-01T01:10:43.143Z,18.46
2018-05-01T01:11:43.350Z,18.43
2018-05-01T01:12:43.340Z,18.42
2018-05-01T01:13:43.265Z,18.43
2018-05-01T01:14:43.147Z,18.42
2018-05-01T01:15:43.100Z,18.42
2018-05-01T01:16:43.297Z,18.43
2018-05-01T01:17:43.256Z,18.44
2018-05-01T01:19:06.872Z,18.43
2018-05-01T01:19:43.271Z,18.41
2018-05-01T01:20:43.253Z,18.43
2018-05-01T01:21:43.128Z,18.43
2018-05-01T01:22:43.349Z,18.43
2018-05-01T01:23:43.324Z,18.43
2018-05-01T01:24:43.204Z,18.41
2018-05-01T01:25:43.344Z,18.44
2018-05-01T01:26:43.197Z,18.43
2018-05-01T01:27:43.283Z,18.42
2018-05-01T01:28:43.287Z,18.42
2018-05-01T01:29:43.399Z,18.42
2018-05-01T01:30:43.147Z,18.41
2018-05-01T01:31:43.198Z,18.41
2018-05-01T01:32:43.271Z,18.42
2018-05-01T01:33:43.331Z,18.42
2018-05-01T01:34:43.300Z,18.39
2018-05-01T01:35:43.203Z,18.38
2018-05-01T01:36:43.244Z,18.41
2018-05-01T01:37:43.097Z,18.42
2018-05-01T01:38:43.223Z,18.41
2018-05-01T01:39:43.201Z,18.41
2018-05-01T01:40:43.209Z,18.4
2018-05-01T01:41:43.200Z,18.39
2018-05-01T01:42:43.250Z,18.41
2018-05-01T01:43:43.215Z,18.39
2018-05-01T01:44:43.345Z,18.4
2018-05-01T01:45:43.219Z,18.38
2018-05-01T01:46:43.189Z,18.39
2018-05-01T01:47:43.181Z,18.41
2018-05-01T01:48:43.218Z,18.4
2018-05-01T01:49:43.143Z,18.41
2018-05-01T01:50:43.161Z,18.39
2018-05-01T01:51:43.283Z,18.41
2018-05-01T01:52:43.192Z,18.39
2018-05-01T01:53:43.204Z,18.4
2018-05-01T01:54:43.187Z,18.4
2018-05-01T01:55:43.171Z,18.42
2018-05-01T01:56:43.192Z,18.37
2018-05-01T01:57:43.128Z,18.39
2018-05-01T01:58:43.202Z,18.39
2018-05-01T01:59:43.222Z,18.39
2018-05-01T02:00:43.268Z,18.4
2018-05-01T02:01:43.264Z,18.38
2018-05-01T02:02:43.135Z,18.38
2018-05-01T02:03:43.151Z,18.37
2018-05-01T02:04:43.160Z,18.39
2018-05-01T02:05:43.206Z,18.4
2018-05-01T02:06:43.195Z,18.39
2018-05-01T02:07:43.307Z,18.38
2018-05-01T02:08:43.450Z,18.39
2018-05-01T02:09:43.418Z,18.4
2018-05-01T02:10:43.346Z,18.37
2018-05-01T02:11:43.287Z,18.39
2018-05-01T02:12:43.185Z,18.38
2018-05-01T02:13:43.333Z,18.39
2018-05-01T02:14:43.193Z,18.39
2018-05-01T02:15:43.055Z,18.37
2018-05-01T02:16:43.313Z,18.39
2018-05-01T02:17:43.294Z,18.37
2018-05-01T02:18:43.254Z,18.39
2018-05-01T02:19:43.262Z,18.35
2018-05-01T02:20:43.167Z,18.37
2018-05-01T02:21:43.333Z,18.36
2018-05-01T02:22:43.260Z,18.37
2018-05-01T02:23:43.146Z,18.36
2018-05-01T02:24:43.305Z,18.37
2018-05-01T02:25:43.215Z,18.35
2018-05-01T02:26:43.268Z,18.35
2018-05-01T02:27:43.140Z,18.36
2018-05-01T02:28:43.359Z,18.38
2018-05-01T02:29:43.092Z,18.35
2018-05-01T02:30:43.105Z,18.33
2018-05-01T02:31:43.233Z,18.34
2018-05-01T02:32:43.235Z,18.36
2018-05-01T02:33:43.216Z,18.37
2018-05-01T02:34:43.245Z,18.37
2018-05-01T02:35:43.337Z,18.34
2018-05-01T02:36:43.188Z,18.35
2018-05-01T02:37:43.161Z,18.35
2018-05-01T02:38:43.375Z,18.36
2018-05-01T02:39:43.309Z,18.35
2018-05-01T02:40:43.289Z,18.35
2018-05-01T02:41:43.205Z,18.35
2018-05-01T02:42:43.076Z,18.33
2018-05-01T02:43:43.119Z,18.34
2018-05-01T02:44:43.202Z,18.35
2018-05-01T02:45:43.268Z,18.35
2018-05-01T02:46:43.265Z,18.33
2018-05-01T02:47:43.155Z,18.34
2018-05-01T02:48:43.314Z,18.35
2018-05-01T02:49:43.184Z,18.35
2018-05-01T02:50:43.178Z,18.34
2018-05-01T02:51:43.213Z,18.36
2018-05-01T02:52:43.299Z,18.34
2018-05-01T02:53:43.083Z,18.33
2018-05-01T02:54:43.219Z,18.33
2018-05-01T02:55:43.184Z,18.33
2018-05-01T02:56:43.225Z,18.33
2018-05-01T02:57:43.172Z,18.33
2018-05-01T02:58:43.168Z,18.33
2018-05-01T02:59:43.095Z,18.32
2018-05-01T03:00:43.366Z,18.34
2018-05-01T03:01:43.286Z,18.33
2018-05-01T03:02:43.289Z,18.32
2018-05-01T03:03:43.183Z,18.33
2018-05-01T03:04:43.183Z,18.3
2018-05-01T03:05:43.127Z,18.33
2018-05-01T03:06:43.140Z,18.33
2018-05-01T03:07:43.113Z,18.33
2018-05-01T03:08:43.291Z,18.34
2018-05-01T03:09:43.570Z,18.33
2018-05-01T03:10:43.180Z,18.32
2018-05-01T03:11:43.245Z,18.33
2018-05-01T03:12:43.155Z,18.33
2018-05-01T03:13:43.244Z,18.32
2018-05-01T03:14:43.373Z,18.3
2018-05-01T03:15:43.243Z,18.3
2018-05-01T03:16:43.239Z,18.32
2018-05-01T03:17:43.180Z,18.29
2018-05-01T03:18:43.355Z,18.29
2018-05-01T03:19:43.139Z,18.3
2018-05-01T03:20:43.256Z,18.32
2018-05-01T03:21:43.234Z,18.29
2018-05-01T03:22:43.371Z,18.33
2018-05-01T03:23:43.305Z,18.29
2018-05-01T03:24:42.990Z,18.3
2018-05-01T03:25:43.116Z,18.3
2018-05-01T03:26:43.104Z,18.32
2018-05-01T03:27:43.231Z,18.3
2018-05-01T03:28:43.229Z,18.32
2018-05-01T03:29:43.299Z,18.3
2018-05-01T03:30:43.176Z,18.29
2018-05-01T03:31:43.091Z,18.3
2018-05-01T03:32:43.203Z,18.32
2018-05-01T03:33:43.385Z,18.3
2018-05-01T03:34:43.070Z,18.33
2018-05-01T03:35:43.110Z,18.29
2018-05-01T03:36:43.244Z,18.3
2018-05-01T03:37:43.333Z,18.3
2018-05-01T03:38:43.219Z,18.29
2018-05-01T03:39:43.187Z,18.3
2018-05-01T03:40:43.209Z,18.28
2018-05-01T03:41:43.226Z,18.28
2018-05-01T03:42:43.099Z,18.27
2018-05-01T03:43:43.351Z,18.29
2018-05-01T03:44:43.402Z,18.29
2018-05-01T03:45:43.199Z,18.27
2018-05-01T03:46:43.519Z,18.28
2018-05-01T03:47:43.366Z,18.28
2018-05-01T03:48:43.375Z,18.29
2018-05-01T03:49:43.042Z,18.28
2018-05-01T03:50:43.170Z,18.29
2018-05-01T03:51:43.271Z,18.28
2018-05-01T03:52:43.424Z,18.29
2018-05-01T03:53:43.081Z,18.26
2018-05-01T03:54:43.181Z,18.28
2018-05-01T03:55:43.257Z,18.29
2018-05-01T03:56:43.126Z,18.28
2018-05-01T03:57:43.264Z,18.27
2018-05-01T03:58:43.111Z,18.28
2018-05-01T03:59:43.212Z,18.28
2018-05-01T04:00:43.286Z,18.26
2018-05-01T04:01:43.152Z,18.29
2018-05-01T04:02:43.211Z,18.27
2018-05-01T04:03:43.127Z,18.26
2018-05-01T04:04:43.080Z,18.26
2018-05-01T04:05:43.332Z,18.26
2018-05-01T04:06:43.173Z,18.26
2018-05-01T04:07:43.262Z,18.25
2018-05-01T04:08:43.203Z,18.26
2018-05-01T04:10:07.019Z,18.26
2018-05-01T04:10:43.244Z,18.26
2018-05-01T04:11:43.276Z,18.28
2018-05-01T04:12:43.197Z,18.25
2018-05-01T04:13:43.321Z,18.28
2018-05-01T04:14:43.135Z,18.26
2018-05-01T04:15:43.331Z,18.27
2018-05-01T04:16:43.241Z,18.27
2018-05-01T04:17:43.037Z,18.26
2018-05-01T04:18:43.088Z,18.26
2018-05-01T04:19:43.288Z,18.27
2018-05-01T04:20:43.100Z,18.25
2018-05-01T04:21:43.397Z,18.26
2018-05-01T04:22:43.333Z,18.27
2018-05-01T04:23:43.205Z,18.26
2018-05-01T04:24:43.171Z,18.26
2018-05-01T04:25:43.318Z,18.25
2018-05-01T04:26:43.248Z,18.26
2018-05-01T04:27:43.196Z,18.25
2018-05-01T04:28:43.039Z,18.26
2018-05-01T04:29:43.214Z,18.26
2018-05-01T04:30:43.307Z,18.24
2018-05-01T04:31:43.171Z,18.25
2018-05-01T04:37:36.080Z,18.26
2018-05-01T04:38:36.168Z,18.25
2018-05-01T04:39:35.979Z,18.24
2018-05-01T04:40:36.038Z,18.24
2018-05-01T04:41:36.131Z,18.25
2018-05-01T04:42:36.154Z,18.24
2018-05-01T04:43:36.097Z,18.25
2018-05-01T04:44:36.182Z,18.25
2018-05-01T04:45:36.212Z,18.25
2018-05-01T04:46:36.010Z,18.27
2018-05-01T04:47:36.073Z,18.26
2018-05-01T04:48:36.088Z,18.25
2018-05-01T04:49:38.054Z,18.25
2018-05-01T04:50:36.029Z,18.25
2018-05-01T04:51:36.439Z,18.25
2018-05-01T04:52:36.120Z,18.22
2018-05-01T04:53:36.114Z,18.25
2018-05-01T04:54:36.106Z,18.25
2018-05-01T04:55:35.983Z,18.26
2018-05-01T04:56:36.167Z,18.24
2018-05-01T04:57:36.089Z,18.25
2018-05-01T04:58:36.556Z,18.26
2018-05-01T04:59:36.135Z,18.24
2018-05-01T05:00:36.139Z,18.26
2018-05-01T05:01:36.111Z,18.27
2018-05-01T05:02:36.004Z,18.26
2018-05-01T05:03:36.144Z,18.24
2018-05-01T05:04:36.125Z,18.25
2018-05-01T05:05:36.196Z,18.25
2018-05-01T05:06:36.045Z,18.25
2018-05-01T05:07:36.264Z,18.26
2018-05-01T05:08:36.050Z,18.25
2018-05-01T05:09:36.530Z,18.26
2018-05-01T05:10:36.004Z,18.28
2018-05-01T05:11:36.036Z,18.27
2018-05-01T05:12:36.142Z,18.26
2018-05-01T05:13:36.492Z,18.26
2018-05-01T05:14:36.086Z,18.26
2018-05-01T05:15:36.132Z,18.26
2018-05-01T05:16:36.164Z,18.24
2018-05-01T05:17:36.149Z,18.26
2018-05-01T05:18:36.110Z,18.24
2018-05-01T05:19:36.145Z,18.24
2018-05-01T05:20:36.193Z,18.26
2018-05-01T05:21:36.140Z,18.25
2018-05-01T05:22:36.046Z,18.26
2018-05-01T05:23:36.272Z,18.25
2018-05-01T05:24:36.084Z,18.26
2018-05-01T05:25:36.243Z,18.26
2018-05-01T05:26:36.222Z,18.24
2018-05-01T05:27:36.188Z,18.25
2018-05-01T05:28:36.110Z,18.26
2018-05-01T05:29:36.126Z,18.26
2018-05-01T05:30:36.269Z,18.26
2018-05-01T05:31:36.103Z,18.27
2018-05-01T05:32:36.387Z,18.24
2018-05-01T05:33:36.176Z,18.25
2018-05-01T05:34:36.222Z,18.26
2018-05-01T05:35:36.353Z,18.26
2018-05-01T05:36:36.227Z,18.26
2018-05-01T05:37:36.217Z,18.24
2018-05-01T05:38:36.021Z,18.25
2018-05-01T05:39:36.050Z,18.26
2018-05-01T05:40:35.964Z,18.24
2018-05-01T05:41:36.016Z,18.25
2018-05-01T05:42:36.434Z,18.23
2018-05-01T05:43:36.264Z,18.25
2018-05-01T05:44:35.987Z,18.24
2018-05-01T05:45:36.043Z,18.25
2018-05-01T05:46:36.267Z,18.26
2018-05-01T05:47:36.190Z,18.27
2018-05-01T05:48:36.029Z,18.25
2018-05-01T05:49:36.192Z,18.24
2018-05-01T05:50:36.236Z,18.24
2018-05-01T05:51:36.200Z,18.26
2018-05-01T05:52:36.039Z,18.26
2018-05-01T05:53:35.987Z,18.25
2018-05-01T05:54:36.248Z,18.25
2018-05-01T05:55:36.219Z,18.24
2018-05-01T05:56:36.114Z,18.24
2018-05-01T05:57:36.042Z,18.25
2018-05-01T05:58:36.239Z,18.24
2018-05-01T05:59:35.972Z,18.25
2018-05-01T06:00:36.116Z,18.27
2018-05-01T06:01:36.021Z,18.25
2018-05-01T06:02:36.117Z,18.26
2018-05-01T06:03:36.136Z,18.25
2018-05-01T06:04:36.198Z,18.26
2018-05-01T06:05:36.018Z,18.26
2018-05-01T06:06:36.346Z,18.26
2018-05-01T06:07:36.291Z,18.24
2018-05-01T06:08:36.242Z,18.24
2018-05-01T06:09:36.123Z,18.25
2018-05-01T06:10:36.131Z,18.25
2018-05-01T06:11:36.138Z,18.25
2018-05-01T06:12:36.125Z,18.26
2018-05-01T06:13:36.274Z,18.26
2018-05-01T06:14:36.097Z,18.25
2018-05-01T06:15:36.252Z,18.25
2018-05-01T06:16:36.162Z,18.26
2018-05-01T06:17:36.144Z,18.25
2018-05-01T06:18:36.037Z,18.24
2018-05-01T06:19:35.969Z,18.25
2018-05-01T06:20:36.162Z,18.23
2018-05-01T06:21:36.121Z,18.26
2018-05-01T06:22:36.036Z,18.24
2018-05-01T06:23:36.175Z,18.25
2018-05-01T06:24:36.180Z,18.25
2018-05-01T06:25:35.999Z,18.25
2018-05-01T06:26:36.073Z,18.24
2018-05-01T06:27:35.860Z,18.25
2018-05-01T06:28:36.185Z,18.22
2018-05-01T06:29:36.065Z,18.25
2018-05-01T06:30:36.106Z,18.24
2018-05-01T06:31:36.161Z,18.25
2018-05-01T06:32:36.039Z,18.23
2018-05-01T06:33:36.121Z,18.23
2018-05-01T06:34:36.051Z,18.25
2018-05-01T06:35:36.115Z,18.23
2018-05-01T06:36:36.080Z,18.26
2018-05-01T06:37:36.007Z,18.25
2018-05-01T06:38:36.058Z,18.26
2018-05-01T06:39:35.986Z,18.24
2018-05-01T06:40:36.126Z,18.25
2018-05-01T06:41:36.199Z,18.25
2018-05-01T06:42:36.203Z,18.26
2018-05-01T06:43:36.159Z,18.25
2018-05-01T06:44:36.166Z,18.24
2018-05-01T06:45:36.044Z,18.26
2018-05-01T06:46:36.295Z,18.25
2018-05-01T06:47:36.194Z,18.25
2018-05-01T06:48:36.112Z,18.23
2018-05-01T06:49:36.119Z,18.24
2018-05-01T06:50:36.101Z,18.23
2018-05-01T06:51:36.044Z,18.25
2018-05-01T06:52:36.248Z,18.25
2018-05-01T06:53:36.493Z,18.23
2018-05-01T06:54:36.256Z,18.22
2018-05-01T06:55:36.122Z,18.23
2018-05-01T06:56:36.051Z,18.24
2018-05-01T06:57:36.351Z,18.23
2018-05-01T06:58:36.060Z,18.23
2018-05-01T06:59:36.102Z,18.22
2018-05-01T07:00:36.249Z,18.22
2018-05-01T07:01:36.125Z,18.26
2018-05-01T07:02:36.227Z,18.23
2018-05-01T07:03:36.168Z,18.24
2018-05-01T07:04:37.337Z,18.24
2018-05-01T07:05:36.252Z,18.24
2018-05-01T07:06:36.120Z,18.24
2018-05-01T07:07:36.132Z,18.25
2018-05-01T07:08:36.307Z,18.24
2018-05-01T07:09:36.113Z,18.22
2018-05-01T07:10:36.042Z,18.24
2018-05-01T07:11:36.115Z,18.23
2018-05-01T07:12:36.132Z,18.24
2018-05-01T07:13:36.221Z,18.24
2018-05-01T07:14:36.202Z,18.23
2018-05-01T07:15:36.051Z,18.22
2018-05-01T07:16:36.293Z,18.23
2018-05-01T07:17:36.135Z,18.22
2018-05-01T07:18:36.311Z,18.22
2018-05-01T07:19:36.169Z,18.24
2018-05-01T07:20:36.042Z,18.22
2018-05-01T07:21:36.189Z,18.22
2018-05-01T07:22:36.077Z,18.23
2018-05-01T07:23:36.122Z,18.23
2018-05-01T07:24:36.169Z,18.23
2018-05-01T07:25:36.264Z,18.24
2018-05-01T07:26:36.232Z,18.22
2018-05-01T07:27:36.267Z,18.24
2018-05-01T07:28:36.394Z,18.26
2018-05-01T07:29:36.256Z,18.23
2018-05-01T07:30:36.234Z,18.23
2018-05-01T07:31:36.106Z,18.23
2018-05-01T07:32:36.126Z,18.22
2018-05-01T07:33:36.150Z,18.22
2018-05-01T07:34:36.062Z,18.25
2018-05-01T07:35:36.485Z,18.23
2018-05-01T07:36:36.253Z,18.22
2018-05-01T07:37:36.185Z,18.22
2018-05-01T07:38:36.136Z,18.22
2018-05-01T07:39:36.125Z,18.22
2018-05-01T07:40:35.987Z,18.24
2018-05-01T07:41:36.823Z,18.22
2018-05-01T07:42:36.304Z,18.23
2018-05-01T07:43:36.130Z,18.23
2018-05-01T07:44:36.155Z,18.22
2018-05-01T07:45:36.204Z,18.22
2018-05-01T07:46:36.270Z,18.22
2018-05-01T07:47:36.216Z,18.23
2018-05-01T07:48:36.178Z,18.23
2018-05-01T07:49:36.197Z,18.23
2018-05-01T07:50:36.071Z,18.22
2018-05-01T07:51:36.099Z,18.24
2018-05-01T07:52:36.085Z,18.23
2018-05-01T07:53:36.043Z,18.22
2018-05-01T07:54:36.121Z,18.22
2018-05-01T07:55:36.174Z,18.22
2018-05-01T07:56:36.101Z,18.23
2018-05-01T07:57:36.344Z,18.22
2018-05-01T07:58:36.262Z,18.24
2018-05-01T07:59:36.053Z,18.23
2018-05-01T08:00:36.041Z,18.22
2018-05-01T08:01:36.149Z,18.23
2018-05-01T08:02:36.408Z,18.23
2018-05-01T08:03:36.098Z,18.22
2018-05-01T08:04:36.390Z,18.15
2018-05-01T08:05:36.480Z,18.18
2018-05-01T08:06:36.269Z,18.2
2018-05-01T08:07:36.089Z,18.23
2018-05-01T08:08:36.271Z,18.27
2018-05-01T08:09:36.043Z,18.29
2018-05-01T08:10:36.022Z,18.3
2018-05-01T08:11:36.280Z,18.33
2018-05-01T08:12:36.108Z,18.34
2018-05-01T08:13:36.123Z,18.35
2018-05-01T08:14:36.040Z,18.37
2018-05-01T08:15:36.422Z,18.37
2018-05-01T08:16:36.247Z,18.37
2018-05-01T08:17:36.289Z,18.39
2018-05-01T08:18:37.652Z,18.41
2018-05-01T08:19:36.120Z,18.4
2018-05-01T08:20:36.246Z,18.41
2018-05-01T08:21:36.097Z,18.41
2018-05-01T08:22:36.146Z,18.42
2018-05-01T08:23:36.081Z,18.41
2018-05-01T08:24:36.196Z,18.46
2018-05-01T08:25:36.117Z,18.47
2018-05-01T08:26:36.168Z,18.43
2018-05-01T08:27:36.177Z,18.46
2018-05-01T08:28:36.115Z,18.47
2018-05-01T08:29:36.234Z,18.48
2018-05-01T08:30:36.662Z,18.48
2018-05-01T08:31:35.997Z,18.49
2018-05-01T08:32:36.126Z,18.49
2018-05-01T08:33:36.100Z,18.49
2018-05-01T08:34:36.218Z,18.47
2018-05-01T08:35:36.158Z,18.44
2018-05-01T08:36:36.264Z,18.47
2018-05-01T08:37:36.727Z,18.48
2018-05-01T08:38:36.167Z,18.49
2018-05-01T08:39:36.095Z,18.52
2018-05-01T08:40:36.144Z,18.51
2018-05-01T08:41:36.065Z,18.53
2018-05-01T08:42:36.481Z,18.51
2018-05-01T08:43:36.176Z,18.53
2018-05-01T08:44:36.084Z,18.54
2018-05-01T08:45:36.289Z,18.54
2018-05-01T08:46:36.044Z,18.52
2018-05-01T08:47:36.777Z,18.54
2018-05-01T08:48:36.160Z,18.52
2018-05-01T08:49:36.151Z,18.52
2018-05-01T08:50:36.168Z,18.54
2018-05-01T08:51:36.172Z,18.54
2018-05-01T08:52:36.055Z,18.55
2018-05-01T08:53:36.041Z,18.56
2018-05-01T08:54:36.019Z,18.55
2018-05-01T08:55:36.286Z,18.55
2018-05-01T08:56:36.274Z,18.57
2018-05-01T08:57:36.120Z,18.54
2018-05-01T08:58:36.381Z,18.56
2018-05-01T08:59:36.242Z,18.57
2018-05-01T09:00:35.999Z,18.56
2018-05-01T09:01:36.237Z,18.57
2018-05-01T09:02:36.067Z,18.58
2018-05-01T09:03:36.180Z,18.58
2018-05-01T09:04:36.118Z,18.59
2018-05-01T09:05:36.202Z,18.58
2018-05-01T09:06:36.281Z,18.59
2018-05-01T09:07:36.246Z,18.57
2018-05-01T09:08:36.172Z,18.61
2018-05-01T09:09:36.595Z,18.58
2018-05-01T09:10:36.383Z,18.58
2018-05-01T09:11:36.089Z,18.59
2018-05-01T09:12:53.081Z,18.59
2018-05-01T09:13:36.150Z,18.62
2018-05-01T09:14:36.094Z,18.64
2018-05-01T09:15:35.843Z,18.63
2018-05-01T09:16:35.943Z,18.62
2018-05-01T09:17:36.386Z,18.66
2018-05-01T09:18:36.027Z,18.63
2018-05-01T09:19:36.140Z,18.63
2018-05-01T09:20:36.333Z,18.64
2018-05-01T09:21:36.070Z,18.64
2018-05-01T09:22:36.136Z,18.65
2018-05-01T09:23:36.101Z,18.64
2018-05-01T09:24:36.176Z,18.65
2018-05-01T09:25:36.447Z,18.65
2018-05-01T09:26:36.199Z,18.65
2018-05-01T09:27:36.138Z,18.66
2018-05-01T09:28:36.225Z,18.65
2018-05-01T09:29:36.084Z,18.65
2018-05-01T09:30:36.139Z,18.66
2018-05-01T09:31:36.115Z,18.65
2018-05-01T09:32:36.480Z,18.67
2018-05-01T09:33:35.984Z,18.67
2018-05-01T09:34:35.993Z,18.68
2018-05-01T09:35:36.026Z,18.67
2018-05-01T09:36:36.129Z,18.69
2018-05-01T09:37:36.164Z,18.66
2018-05-01T09:38:36.229Z,18.68
2018-05-01T09:39:36.055Z,18.67
2018-05-01T09:40:36.156Z,18.69
2018-05-01T09:41:36.026Z,18.7
2018-05-01T09:42:36.080Z,18.66
2018-05-01T09:43:36.098Z,18.67
2018-05-01T09:44:36.037Z,18.68
2018-05-01T09:45:36.059Z,18.64
2018-05-01T09:46:36.017Z,18.65
2018-05-01T09:47:36.288Z,18.66
2018-05-01T09:48:35.994Z,18.66
2018-05-01T09:49:36.320Z,18.63
2018-05-01T09:50:36.056Z,18.64
2018-05-01T09:51:36.171Z,18.63
2018-05-01T09:52:35.992Z,18.63
2018-05-01T09:53:36.005Z,18.61
2018-05-01T09:54:36.135Z,18.58
2018-05-01T09:55:36.255Z,18.61
2018-05-01T09:56:36.026Z,18.63
2018-05-01T09:57:36.125Z,18.62
2018-05-01T09:58:36.054Z,18.63
2018-05-01T09:59:36.054Z,18.63
2018-05-01T10:00:35.986Z,18.65
2018-05-01T10:01:36.143Z,18.58
2018-05-01T10:02:36.050Z,18.62
2018-05-01T10:03:36.155Z,18.64
2018-05-01T10:04:35.958Z,18.63
2018-05-01T10:05:36.098Z,18.66
2018-05-01T10:06:35.997Z,18.66
2018-05-01T10:07:36.069Z,18.66
2018-05-01T10:08:36.072Z,18.68
2018-05-01T10:09:36.222Z,18.63
2018-05-01T10:10:35.987Z,18.62
2018-05-01T10:11:36.142Z,18.62
2018-05-01T10:12:36.044Z,18.62
2018-05-01T10:13:36.199Z,18.58
2018-05-01T10:14:36.067Z,18.61
2018-05-01T10:15:36.024Z,18.57
2018-05-01T10:16:35.940Z,18.56
2018-05-01T10:17:35.980Z,18.56
2018-05-01T10:18:36.112Z,18.57
2018-05-01T10:19:36.102Z,18.56
2018-05-01T10:20:35.983Z,18.58
2018-05-01T10:21:36.189Z,18.58
2018-05-01T10:22:36.074Z,18.61
2018-05-01T10:23:36.033Z,18.61
2018-05-01T10:24:35.962Z,18.59
2018-05-01T10:25:36.124Z,18.61
2018-05-01T10:26:36.016Z,18.58
2018-05-01T10:27:36.048Z,18.59
2018-05-01T10:28:36.312Z,18.56
2018-05-01T10:29:36.344Z,18.62
2018-05-01T10:30:36.079Z,18.59
2018-05-01T10:31:35.987Z,18.59
2018-05-01T10:32:36.162Z,18.63
2018-05-01T10:33:36.020Z,18.63
2018-05-01T10:34:36.217Z,18.62
2018-05-01T10:35:36.161Z,18.62
2018-05-01T10:36:36.139Z,18.61
2018-05-01T10:37:36.030Z,18.63
2018-05-01T10:38:36.992Z,18.63
2018-05-01T10:39:35.964Z,18.63
2018-05-01T10:40:36.197Z,18.66
2018-05-01T10:41:36.247Z,18.63
2018-05-01T10:42:36.056Z,18.64
2018-05-01T10:43:36.112Z,18.65
2018-05-01T10:44:35.957Z,18.68
2018-05-01T10:45:36.141Z,18.64
2018-05-01T10:46:36.179Z,18.66
2018-05-01T10:47:36.034Z,18.66
2018-05-01T10:48:36.037Z,18.67
2018-05-01T10:49:36.139Z,18.66
2018-05-01T10:50:36.103Z,18.65
2018-05-01T10:51:36.187Z,18.65
2018-05-01T10:52:36.154Z,18.66
2018-05-01T10:53:36.215Z,18.68
2018-05-01T10:54:36.580Z,18.67
2018-05-01T10:55:36.138Z,18.68
2018-05-01T10:56:36.091Z,18.68
2018-05-01T10:57:35.906Z,18.66
2018-05-01T10:58:36.011Z,18.68
2018-05-01T10:59:36.045Z,18.7
2018-05-01T11:00:36.357Z,18.71
2018-05-01T11:01:35.962Z,18.71
2018-05-01T11:02:36.066Z,18.72
2018-05-01T11:03:36.167Z,18.71
2018-05-01T11:04:35.929Z,18.69
2018-05-01T11:05:36.013Z,18.69
2018-05-01T11:06:36.165Z,18.69
2018-05-01T11:07:35.998Z,18.69
2018-05-01T11:08:36.142Z,18.72
2018-05-01T11:09:35.848Z,18.7
2018-05-01T11:10:36.062Z,18.71
2018-05-01T11:11:36.098Z,18.72
2018-05-01T11:12:35.947Z,18.71
2018-05-01T11:13:35.990Z,18.68
2018-05-01T11:14:35.994Z,18.69
2018-05-01T11:15:36.056Z,18.7
2018-05-01T11:16:35.998Z,18.7
2018-05-01T11:17:36.388Z,18.7
2018-05-01T11:18:36.101Z,18.69
2018-05-01T11:19:36.147Z,18.67
2018-05-01T11:20:36.156Z,18.66
2018-05-01T11:21:36.183Z,18.67
2018-05-01T11:22:36.116Z,18.66
2018-05-01T11:23:35.908Z,18.67
2018-05-01T11:24:36.383Z,18.67
2018-05-01T11:25:36.038Z,18.67
2018-05-01T11:26:36.030Z,18.67
2018-05-01T11:27:35.971Z,18.67
2018-05-01T11:28:36.456Z,18.66
2018-05-01T11:29:35.984Z,18.67
2018-05-01T11:30:36.166Z,18.66
2018-05-01T11:31:35.966Z,18.65
2018-05-01T11:32:35.987Z,18.66
2018-05-01T11:33:36.427Z,18.63
2018-05-01T11:34:35.925Z,18.62
2018-05-01T11:35:35.981Z,18.65
2018-05-01T11:36:36.150Z,18.65
2018-05-01T11:37:36.112Z,18.64
2018-05-01T11:38:36.050Z,18.64
2018-05-01T11:39:36.143Z,18.62
2018-05-01T11:40:35.935Z,18.63
2018-05-01T11:41:36.138Z,18.62
2018-05-01T11:42:36.141Z,18.63
2018-05-01T11:43:36.232Z,18.59
2018-05-01T11:44:36.102Z,18.63
2018-05-01T11:45:36.120Z,18.61
2018-05-01T11:46:36.032Z,18.59
2018-05-01T11:47:36.080Z,18.59
2018-05-01T11:48:35.969Z,18.57
2018-05-01T11:49:36.095Z,18.57
2018-05-01T11:50:37.853Z,18.56
2018-05-01T11:51:35.921Z,18.55
2018-05-01T11:52:35.994Z,18.53
2018-05-01T11:53:36.033Z,18.55
2018-05-01T11:54:36.128Z,18.52
2018-05-01T11:55:36.049Z,18.53
2018-05-01T11:56:36.152Z,18.53
2018-05-01T11:57:35.963Z,18.52
2018-05-01T11:58:36.096Z,18.51
2018-05-01T11:59:35.916Z,18.49
2018-05-01T12:00:36.195Z,18.49
2018-05-01T12:01:35.977Z,18.53
2018-05-01T12:02:36.358Z,18.5
2018-05-01T12:03:36.066Z,18.51
2018-05-01T12:04:36.062Z,18.51
2018-05-01T12:05:36.076Z,18.5
2018-05-01T12:06:36.054Z,18.49
2018-05-01T12:07:35.865Z,18.47
2018-05-01T12:08:36.039Z,18.49
2018-05-01T12:09:35.929Z,18.49
2018-05-01T12:10:36.293Z,18.49
2018-05-01T12:11:35.994Z,18.49
2018-05-01T12:12:36.101Z,18.49
2018-05-01T12:13:35.980Z,18.48
2018-05-01T12:14:36.089Z,18.47
2018-05-01T12:15:36.154Z,18.46
2018-05-01T12:16:36.084Z,18.48
2018-05-01T12:17:36.192Z,18.47
2018-05-01T12:18:36.480Z,18.48
2018-05-01T12:19:35.975Z,18.47
2018-05-01T12:20:35.979Z,18.47
2018-05-01T12:21:36.037Z,18.46
2018-05-01T12:22:36.006Z,18.47
2018-05-01T12:23:36.236Z,18.44
2018-05-01T12:24:35.881Z,18.46
2018-05-01T12:25:36.026Z,18.46
2018-05-01T12:26:35.934Z,18.44
2018-05-01T12:27:36.053Z,18.46
2018-05-01T12:28:36.099Z,18.44
2018-05-01T12:29:36.165Z,18.44
2018-05-01T12:30:36.085Z,18.47
2018-05-01T12:31:35.995Z,18.47
2018-05-01T12:32:36.234Z,18.47
2018-05-01T12:33:36.092Z,18.44
2018-05-01T12:34:36.150Z,18.44
2018-05-01T12:35:36.168Z,18.46
2018-05-01T12:36:36.824Z,18.44
2018-05-01T12:37:35.994Z,18.43
2018-05-01T12:38:36.150Z,18.44
2018-05-01T12:39:36.181Z,18.43
2018-05-01T12:40:36.149Z,18.43
2018-05-01T12:41:35.987Z,18.44
2018-05-01T12:42:36.034Z,18.42
2018-05-01T12:43:36.078Z,18.41
2018-05-01T12:44:36.137Z,18.41
2018-05-01T12:45:36.287Z,18.43
2018-05-01T12:46:35.908Z,18.42
2018-05-01T12:47:36.016Z,18.43
2018-05-01T12:48:36.373Z,18.4
2018-05-01T12:49:35.886Z,18.42
2018-05-01T12:50:36.218Z,18.41
2018-05-01T12:51:36.225Z,18.42
2018-05-01T12:52:36.220Z,18.41
2018-05-01T12:53:36.240Z,18.42
2018-05-01T12:54:35.915Z,18.41
2018-05-01T12:55:36.089Z,18.4
2018-05-01T12:56:36.080Z,18.41
2018-05-01T12:57:36.161Z,18.41
2018-05-01T12:58:36.018Z,18.4
2018-05-01T12:59:36.048Z,18.41